EZY81E EGGP-ANY
Flight info
| Callsign | EZY81E |
|---|---|
| Flight time | N/A |
| Altitude | 3000 |
| Route | EGGP |
| Aircraft | A20N/M-SDE2E3FGHIJ1RWXY/LB1 |
Departure
| Time | 2026-04-29 18:52 |
|---|---|
| Airport | Liverpool John Lennon Airport (EGGP) |
Arrival
| Time | N/A |
|---|---|
| Airport | ANY |
| Time | Latitude | Longitude | Altitude | Speed | Heading |
|---|---|---|---|---|---|
| 2026-04-29 18:42 | 53.33561 | -2.85589 | 94 ft | 0 kts | 177° |
| 2026-04-29 18:49 | 53.33566 | -2.85590 | 94 ft | 2 kts | 176° |
| 2026-04-29 18:49 | 53.33582 | -2.85591 | 94 ft | 2 kts | 192° |
| 2026-04-29 18:49 | 53.33591 | -2.85577 | 94 ft | 1 kts | 263° |
| 2026-04-29 18:50 | 53.33591 | -2.85580 | 95 ft | 3 kts | 263° |
| 2026-04-29 18:50 | 53.33592 | -2.85658 | 95 ft | 11 kts | 272° |
| 2026-04-29 18:50 | 53.33596 | -2.85826 | 96 ft | 18 kts | 272° |
| 2026-04-29 18:50 | 53.33590 | -2.86068 | 96 ft | 26 kts | 264° |
| 2026-04-29 18:51 | 53.33512 | -2.86286 | 95 ft | 21 kts | 193° |
| 2026-04-29 18:51 | 53.33459 | -2.86362 | 94 ft | 7 kts | 256° |
| 2026-04-29 18:51 | 53.33406 | -2.86446 | 95 ft | 10 kts | 190° |
| 2026-04-29 18:51 | 53.33305 | -2.86255 | 94 ft | 51 kts | 92° |
| 2026-04-29 18:52 | 53.33360 | -2.85061 | 207 ft | 140 kts | 87° |
| 2026-04-29 18:52 | 53.33430 | -2.83332 | 1222 ft | 160 kts | 88° |
| 2026-04-29 18:52 | 53.33446 | -2.81333 | 2376 ft | 183 kts | 90° |
| 2026-04-29 18:52 | 53.33490 | -2.78967 | 3445 ft | 211 kts | 90° |
| 2026-04-29 18:53 | 53.33588 | -2.76302 | 3839 ft | 234 kts | 90° |
| 2026-04-29 18:53 | 53.33695 | -2.73676 | 3973 ft | 231 kts | 90° |
| 2026-04-29 18:53 | 53.33808 | -2.70951 | 4012 ft | 231 kts | 90° |
| 2026-04-29 18:53 | 53.33919 | -2.68279 | 4015 ft | 231 kts | 90° |
| 2026-04-29 18:54 | 53.34034 | -2.65619 | 4018 ft | 231 kts | 90° |
| 2026-04-29 18:54 | 53.34150 | -2.62934 | 4022 ft | 229 kts | 90° |
| 2026-04-29 18:54 | 53.34264 | -2.60271 | 4020 ft | 233 kts | 90° |
| 2026-04-29 18:54 | 53.34379 | -2.57571 | 3987 ft | 228 kts | 90° |
| 2026-04-29 18:55 | 53.34480 | -2.55002 | 3919 ft | 216 kts | 90° |
| 2026-04-29 18:55 | 53.34558 | -2.52574 | 3842 ft | 204 kts | 90° |
| 2026-04-29 18:55 | 53.34635 | -2.50251 | 3719 ft | 194 kts | 90° |
| 2026-04-29 18:55 | 53.34709 | -2.48020 | 3378 ft | 192 kts | 90° |
| 2026-04-29 18:56 | 53.34774 | -2.45812 | 3019 ft | 189 kts | 90° |
| 2026-04-29 18:56 | 53.34827 | -2.43620 | 2639 ft | 187 kts | 90° |
| 2026-04-29 18:56 | 53.34847 | -2.41410 | 2202 ft | 190 kts | 92° |
| 2026-04-29 18:56 | 53.34409 | -2.39342 | 2062 ft | 198 kts | 119° |
| 2026-04-29 18:57 | 53.33630 | -2.37467 | 2025 ft | 192 kts | 120° |
| 2026-04-29 18:57 | 53.32999 | -2.35625 | 1740 ft | 185 kts | 104° |
| 2026-04-29 18:57 | 53.33060 | -2.33480 | 1354 ft | 185 kts | 74° |
| 2026-04-29 18:57 | 53.33515 | -2.31581 | 850 ft | 159 kts | 63° |
| 2026-04-29 18:58 | 53.33951 | -2.30525 | 577 ft | 0 kts | 54° |